createdAt,value
2019-04-30T00:00:46.652Z,2.45
2019-04-30T00:02:59.780Z,2.42
2019-04-30T00:05:02.142Z,2.67
2019-04-30T00:09:17.419Z,2.40
2019-04-30T00:11:19.966Z,2.60
2019-04-30T00:13:25.886Z,3.02
2019-04-30T00:15:28.290Z,2.80
2019-04-30T00:17:30.664Z,3.17
2019-04-30T00:21:36.150Z,3.70
2019-04-30T00:23:38.765Z,4.10
2019-04-30T00:25:41.264Z,4.35
2019-04-30T00:29:45.831Z,4.12
2019-04-30T00:31:48.269Z,4.53
2019-04-30T00:33:52.648Z,4.92
2019-04-30T00:35:57.973Z,4.10
2019-04-30T00:38:00.283Z,4.17
2019-04-30T00:40:05.482Z,3.52
2019-04-30T00:42:07.571Z,4.42
2019-04-30T00:44:09.915Z,3.87
2019-04-30T00:48:19.780Z,4.43
2019-04-30T00:50:18.488Z,4.78
2019-04-30T00:54:27.926Z,4.90
2019-04-30T00:56:28.316Z,4.22
2019-04-30T00:58:31.800Z,4.15
2019-04-30T01:00:43.261Z,4.78
2019-04-30T01:03:00.976Z,4.47
2019-04-30T01:05:05.300Z,4.90
2019-04-30T01:07:08.651Z,4.67
2019-04-30T01:09:10.696Z,4.90
2019-04-30T01:11:15.342Z,4.92
2019-04-30T01:13:19.190Z,4.50
2019-04-30T01:15:21.955Z,5.08
2019-04-30T01:17:24.477Z,5.05
2019-04-30T01:19:32.155Z,5.67
2019-04-30T01:21:31.500Z,5.37
2019-04-30T01:23:33.886Z,6.00
2019-04-30T01:27:39.552Z,6.15
2019-04-30T01:29:44.346Z,5.85
2019-04-30T01:31:46.237Z,6.37
2019-04-30T01:33:49.502Z,6.67
2019-04-30T01:35:51.826Z,5.55
2019-04-30T01:37:54.198Z,5.75
2019-04-30T01:39:56.541Z,5.47
2019-04-30T01:42:02.672Z,5.67
2019-04-30T01:44:03.810Z,5.83
2019-04-30T01:46:12.299Z,6.45
2019-04-30T01:48:12.680Z,6.25
2019-04-30T01:50:15.543Z,6.47
2019-04-30T01:52:19.402Z,7.03
2019-04-30T01:54:24.381Z,7.60
2019-04-30T01:56:43.396Z,7.58
2019-04-30T01:58:55.016Z,8.70
2019-04-30T02:01:00.511Z,9.23
2019-04-30T02:03:03.899Z,9.83
2019-04-30T02:05:06.546Z,10.48
2019-04-30T02:07:09.055Z,10.70
2019-04-30T02:09:11.518Z,10.78
2019-04-30T02:13:15.630Z,11.35
2019-04-30T02:17:21.529Z,11.90
2019-04-30T02:19:23.914Z,11.30
2019-04-30T02:21:26.096Z,11.73
2019-04-30T02:23:29.671Z,12.15
2019-04-30T02:25:32.222Z,12.58
2019-04-30T02:27:34.375Z,11.25
2019-04-30T02:29:36.546Z,11.68
2019-04-30T02:31:40.749Z,10.93
2019-04-30T02:33:45.960Z,11.48
2019-04-30T02:36:10.889Z,10.10
2019-04-30T02:38:20.364Z,11.70
2019-04-30T02:40:22.837Z,10.82
2019-04-30T02:42:26.046Z,11.25
2019-04-30T02:44:29.374Z,10.58
2019-04-30T02:46:32.694Z,11.68
2019-04-30T02:48:39.495Z,11.60
2019-04-30T02:50:42.532Z,11.50
2019-04-30T02:52:45.450Z,11.30
2019-04-30T02:54:50.834Z,11.70
2019-04-30T02:57:02.415Z,10.98
2019-04-30T02:59:04.579Z,10.25
2019-04-30T03:01:06.687Z,9.88
2019-04-30T03:03:10.264Z,9.05
2019-04-30T03:05:13.708Z,9.28
2019-04-30T03:07:16.039Z,9.70
2019-04-30T03:09:20.177Z,9.43
2019-04-30T03:11:21.914Z,10.08
2019-04-30T03:13:24.220Z,9.88
2019-04-30T03:15:26.187Z,9.88
2019-04-30T03:17:39.426Z,10.53
2019-04-30T03:19:50.212Z,10.60
2019-04-30T03:22:02.313Z,11.40
2019-04-30T03:24:05.652Z,10.88
2019-04-30T03:26:12.568Z,11.40
2019-04-30T03:28:13.685Z,11.35
2019-04-30T03:30:16.083Z,11.97
2019-04-30T03:32:22.540Z,10.20
2019-04-30T03:34:25.555Z,11.57
2019-04-30T03:36:25.926Z,12.60
2019-04-30T03:38:30.118Z,13.03
2019-04-30T03:40:31.988Z,12.70
2019-04-30T03:42:33.975Z,12.93
2019-04-30T03:44:35.971Z,14.18
2019-04-30T03:46:40.082Z,13.22
2019-04-30T03:48:42.364Z,12.40
2019-04-30T03:50:53.291Z,13.65
2019-04-30T03:52:50.326Z,14.15
2019-04-30T03:54:52.253Z,14.07
2019-04-30T03:56:56.559Z,13.48
2019-04-30T03:59:00.234Z,13.13
2019-04-30T04:01:25.129Z,12.98
2019-04-30T04:03:29.204Z,12.82
2019-04-30T04:05:42.399Z,13.60
2019-04-30T04:07:59.909Z,12.43
2019-04-30T04:10:14.263Z,12.90
2019-04-30T04:12:23.165Z,13.00
2019-04-30T04:14:25.260Z,13.10
2019-04-30T04:16:29.310Z,13.68
2019-04-30T04:18:31.569Z,12.53
2019-04-30T04:22:35.074Z,12.25
2019-04-30T04:24:37.089Z,13.10
2019-04-30T04:26:43.378Z,12.98
2019-04-30T04:28:43.653Z,12.25
2019-04-30T04:30:50.664Z,11.53
2019-04-30T04:32:53.346Z,12.43
2019-04-30T04:34:55.323Z,11.68
2019-04-30T04:36:59.992Z,12.85
2019-04-30T04:39:01.502Z,12.65
2019-04-30T04:41:05.383Z,13.13
2019-04-30T04:43:10.189Z,12.35
2019-04-30T04:45:11.279Z,12.90
2019-04-30T04:47:16.064Z,13.50
2019-04-30T04:49:20.031Z,13.85
2019-04-30T04:51:36.676Z,13.72
2019-04-30T04:53:25.596Z,12.70
2019-04-30T04:55:29.947Z,13.10
2019-04-30T04:57:31.493Z,13.58
2019-04-30T04:59:33.496Z,14.95
2019-04-30T05:01:35.780Z,15.00
2019-04-30T05:03:39.852Z,14.83
2019-04-30T05:05:42.475Z,14.45
2019-04-30T05:07:44.504Z,13.95
2019-04-30T05:09:46.589Z,13.98
2019-04-30T05:11:50.555Z,13.45
2019-04-30T05:13:52.583Z,14.15
2019-04-30T05:15:54.596Z,13.48
2019-04-30T05:17:59.253Z,13.70
2019-04-30T05:20:01.588Z,13.80
2019-04-30T05:22:03.876Z,13.85
2019-04-30T05:24:05.870Z,14.10
2019-04-30T05:26:08.463Z,14.07
2019-04-30T05:28:11.780Z,13.50
2019-04-30T05:30:13.865Z,14.33
2019-04-30T05:32:15.928Z,14.33
2019-04-30T05:34:18.853Z,14.38
2019-04-30T05:36:21.198Z,13.68
2019-04-30T05:38:23.619Z,14.50
2019-04-30T05:41:25.111Z,13.65
2019-04-30T05:43:28.845Z,13.75
2019-04-30T05:45:33.711Z,13.50
2019-04-30T05:47:36.045Z,14.75
2019-04-30T05:49:38.857Z,13.83
2019-04-30T05:51:52.869Z,13.62
2019-04-30T05:53:44.931Z,14.05
2019-04-30T05:55:47.143Z,14.90
2019-04-30T05:57:55.824Z,15.48
2019-04-30T05:59:53.016Z,15.20
2019-04-30T06:01:55.018Z,15.32
2019-04-30T06:03:57.287Z,14.85
2019-04-30T06:05:59.713Z,14.78
2019-04-30T06:08:01.693Z,15.93
2019-04-30T06:10:26.914Z,16.35
2019-04-30T06:12:39.162Z,18.00
2019-04-30T06:14:53.596Z,20.95
2019-04-30T06:17:09.934Z,23.60
2019-04-30T06:19:12.069Z,24.67
2019-04-30T06:21:14.243Z,26.48
2019-04-30T06:23:16.545Z,27.22
2019-04-30T06:25:30.480Z,25.20
2019-04-30T06:27:23.071Z,25.55
2019-04-30T06:29:25.044Z,24.47
2019-04-30T06:31:34.747Z,25.37
2019-04-30T06:33:31.113Z,24.80
2019-04-30T06:35:34.637Z,27.15
2019-04-30T06:37:38.719Z,25.85
2019-04-30T06:39:40.623Z,25.00
2019-04-30T06:41:42.864Z,24.37
2019-04-30T06:43:45.513Z,24.72
2019-04-30T06:45:51.219Z,24.75
2019-04-30T06:47:53.314Z,25.08
2019-04-30T06:51:58.783Z,23.83
2019-04-30T06:54:02.204Z,23.45
2019-04-30T06:56:04.359Z,22.98
2019-04-30T06:58:14.589Z,24.37
2019-04-30T07:00:11.296Z,23.70
2019-04-30T07:02:13.495Z,23.75
2019-04-30T07:04:15.461Z,24.35
2019-04-30T07:06:27.510Z,22.85
2019-04-30T07:08:46.931Z,22.07
2019-04-30T07:10:53.707Z,22.40
2019-04-30T07:13:00.156Z,21.60
2019-04-30T07:17:03.851Z,18.50
2019-04-30T07:19:06.097Z,18.60
2019-04-30T07:21:08.724Z,17.90
2019-04-30T07:23:10.849Z,14.95
2019-04-30T07:25:12.879Z,13.80
2019-04-30T07:27:14.859Z,15.10
2019-04-30T07:29:19.643Z,17.02
2019-04-30T07:31:22.319Z,19.75
2019-04-30T07:33:24.525Z,19.75
2019-04-30T07:35:29.117Z,21.15
2019-04-30T07:37:30.739Z,18.07
2019-04-30T07:39:33.598Z,18.60
2019-04-30T07:41:35.690Z,16.20
2019-04-30T07:43:39.259Z,14.95
2019-04-30T07:45:41.715Z,13.85
2019-04-30T07:47:43.739Z,12.30
2019-04-30T07:49:51.763Z,10.58
2019-04-30T07:51:51.710Z,11.30
2019-04-30T07:53:53.805Z,11.15
2019-04-30T07:55:56.343Z,11.20
2019-04-30T08:00:03.049Z,11.83
2019-04-30T08:02:13.677Z,13.28
2019-04-30T08:04:29.535Z,14.53
2019-04-30T08:06:31.837Z,13.45
2019-04-30T08:08:34.259Z,12.85
2019-04-30T08:12:42.465Z,11.00
2019-04-30T08:14:42.762Z,10.48
2019-04-30T08:16:45.054Z,10.55
2019-04-30T08:18:49.118Z,10.60
2019-04-30T08:20:51.000Z,11.25
2019-04-30T08:22:53.191Z,11.53
2019-04-30T08:24:55.170Z,10.60
2019-04-30T08:26:57.133Z,9.78
2019-04-30T08:28:59.945Z,9.30
2019-04-30T08:31:02.973Z,8.60
2019-04-30T08:33:05.109Z,8.40
2019-04-30T08:35:09.407Z,8.90
2019-04-30T08:37:17.059Z,9.08
2019-04-30T08:39:15.542Z,8.25
2019-04-30T08:41:19.295Z,8.73
2019-04-30T08:43:21.586Z,8.48
2019-04-30T08:45:23.739Z,7.95
2019-04-30T08:47:26.136Z,7.90
2019-04-30T08:49:30.531Z,8.28
2019-04-30T08:51:32.282Z,8.20
2019-04-30T08:53:34.989Z,9.10
2019-04-30T08:55:39.010Z,8.25
2019-04-30T08:57:43.992Z,8.18
2019-04-30T08:59:46.492Z,7.55
2019-04-30T09:03:51.443Z,8.85
2019-04-30T09:06:09.240Z,9.15
2019-04-30T09:08:11.910Z,9.68
2019-04-30T09:10:13.899Z,9.65
2019-04-30T09:12:16.374Z,9.38
2019-04-30T09:14:18.746Z,9.03
2019-04-30T09:18:25.027Z,8.40
2019-04-30T09:20:29.046Z,8.50
2019-04-30T09:22:31.140Z,9.23
2019-04-30T09:24:33.391Z,9.75
2019-04-30T09:26:35.377Z,9.43
2019-04-30T09:28:40.788Z,9.15
2019-04-30T09:30:41.689Z,9.40
2019-04-30T09:32:44.011Z,9.15
2019-04-30T09:34:46.022Z,9.40
2019-04-30T09:36:48.990Z,8.30
2019-04-30T09:38:51.122Z,7.35
2019-04-30T09:40:53.117Z,7.42
2019-04-30T09:42:55.592Z,7.87
2019-04-30T09:47:02.096Z,7.55
2019-04-30T09:49:05.269Z,7.83
2019-04-30T09:51:10.162Z,7.10
2019-04-30T09:53:11.778Z,8.00
2019-04-30T09:55:14.508Z,7.58
2019-04-30T09:57:16.561Z,7.35
2019-04-30T09:59:19.047Z,6.40
2019-04-30T10:03:24.885Z,6.97
2019-04-30T10:05:29.292Z,6.62
2019-04-30T10:07:31.799Z,6.50
2019-04-30T10:09:33.807Z,5.90
2019-04-30T10:11:43.641Z,6.45
2019-04-30T10:13:45.775Z,5.30
2019-04-30T10:16:13.198Z,5.90
2019-04-30T10:18:15.617Z,5.30
2019-04-30T10:20:24.039Z,5.95
2019-04-30T10:22:26.359Z,5.50
2019-04-30T10:24:29.484Z,4.95
2019-04-30T10:26:32.062Z,5.30
2019-04-30T10:28:37.690Z,5.42
2019-04-30T10:30:39.747Z,5.80
2019-04-30T10:32:41.911Z,6.45
2019-04-30T10:34:44.027Z,5.80
2019-04-30T10:36:46.078Z,6.67
2019-04-30T10:38:49.435Z,6.58
2019-04-30T10:40:51.525Z,5.37
2019-04-30T10:42:53.751Z,5.65
2019-04-30T10:44:55.927Z,5.60
2019-04-30T10:46:59.365Z,5.03
2019-04-30T10:49:01.500Z,6.50
2019-04-30T10:51:03.845Z,5.30
2019-04-30T10:53:06.203Z,5.58
2019-04-30T10:57:12.284Z,5.45
2019-04-30T10:59:14.265Z,6.55
2019-04-30T11:01:16.484Z,5.70
2019-04-30T11:03:22.449Z,4.80
2019-04-30T11:05:22.662Z,5.37
2019-04-30T11:07:24.754Z,5.60
2019-04-30T11:09:30.654Z,4.95
2019-04-30T11:11:32.284Z,4.72
2019-04-30T11:13:34.439Z,5.30
2019-04-30T11:15:36.589Z,5.87
2019-04-30T11:17:39.701Z,5.17
2019-04-30T11:19:42.364Z,4.85
2019-04-30T11:21:45.040Z,5.65
2019-04-30T11:23:49.244Z,5.12
2019-04-30T11:25:52.161Z,5.67
2019-04-30T11:27:55.441Z,5.55
2019-04-30T11:30:03.519Z,5.83
2019-04-30T11:32:10.599Z,5.17
2019-04-30T11:34:13.162Z,5.40
2019-04-30T11:36:15.152Z,5.75
2019-04-30T11:38:20.389Z,5.80
2019-04-30T11:40:34.405Z,4.78
2019-04-30T11:42:32.592Z,5.00
2019-04-30T11:47:10.186Z,5.75
2019-04-30T11:49:12.178Z,5.30
2019-04-30T11:51:14.241Z,5.08
2019-04-30T11:53:25.372Z,5.85
2019-04-30T11:55:20.648Z,5.05
2019-04-30T11:57:22.770Z,5.33
2019-04-30T11:59:25.118Z,5.10
2019-04-30T12:03:31.942Z,4.67
2019-04-30T12:05:33.984Z,4.78
2019-04-30T12:07:59.710Z,5.03
2019-04-30T12:10:16.546Z,4.40
2019-04-30T12:12:18.994Z,4.53
2019-04-30T12:16:22.900Z,4.35
2019-04-30T12:18:25.162Z,5.00
2019-04-30T12:20:27.209Z,4.78
2019-04-30T12:22:29.698Z,5.10
2019-04-30T12:24:31.853Z,5.10
2019-04-30T12:26:33.875Z,4.67
2019-04-30T12:28:35.991Z,4.85
2019-04-30T12:30:39.121Z,4.53
2019-04-30T12:32:41.563Z,4.70
2019-04-30T12:34:43.729Z,5.25
2019-04-30T12:36:45.957Z,4.75
2019-04-30T12:38:48.205Z,5.25
2019-04-30T12:40:50.269Z,5.15
2019-04-30T12:42:52.742Z,4.87
2019-04-30T12:46:58.636Z,4.72
2019-04-30T12:49:11.412Z,5.20
2019-04-30T12:53:58.543Z,4.58
2019-04-30T12:56:10.968Z,6.15
2019-04-30T12:58:14.200Z,5.15
2019-04-30T13:00:19.907Z,5.08
2019-04-30T13:02:22.175Z,3.90
2019-04-30T13:04:24.286Z,5.05
2019-04-30T13:06:26.836Z,5.08
2019-04-30T13:08:30.071Z,5.10
2019-04-30T13:10:33.116Z,5.12
2019-04-30T13:12:36.181Z,5.75
2019-04-30T13:14:51.061Z,5.25
2019-04-30T13:16:43.167Z,6.25
2019-04-30T13:18:45.514Z,5.40
2019-04-30T13:20:48.990Z,4.75
2019-04-30T13:22:51.464Z,4.97
2019-04-30T13:24:53.699Z,5.22
2019-04-30T13:26:55.909Z,4.87
2019-04-30T13:29:02.847Z,4.55
2019-04-30T13:31:05.247Z,5.10
2019-04-30T13:33:20.447Z,4.50
2019-04-30T13:35:22.633Z,5.20
2019-04-30T13:37:26.103Z,5.12
2019-04-30T13:39:47.529Z,4.55
2019-04-30T13:42:14.573Z,5.10
2019-04-30T13:44:09.745Z,4.67
2019-04-30T13:46:12.428Z,4.78
2019-04-30T13:50:18.991Z,5.03
2019-04-30T13:52:20.558Z,4.70
2019-04-30T13:54:22.754Z,4.75
2019-04-30T13:56:25.116Z,5.00
2019-04-30T14:00:29.844Z,5.00
2019-04-30T14:02:35.250Z,5.45
2019-04-30T14:05:03.075Z,4.97
2019-04-30T14:07:17.710Z,4.95
2019-04-30T14:09:24.606Z,4.90
2019-04-30T14:11:26.832Z,4.45
2019-04-30T14:13:28.930Z,4.85
2019-04-30T14:15:31.206Z,4.33
2019-04-30T14:17:33.205Z,4.58
2019-04-30T14:19:35.418Z,4.22
2019-04-30T14:21:39.148Z,4.47
2019-04-30T14:23:41.457Z,4.90
2019-04-30T14:25:55.354Z,4.40
2019-04-30T14:27:52.159Z,4.90
2019-04-30T14:29:52.971Z,3.98
2019-04-30T14:33:59.204Z,4.33
2019-04-30T14:36:01.422Z,5.72
2019-04-30T14:38:05.275Z,5.10
2019-04-30T14:40:12.205Z,4.97
2019-04-30T14:42:13.267Z,4.72
2019-04-30T14:44:20.504Z,5.05
2019-04-30T14:46:43.316Z,5.15
2019-04-30T14:48:51.001Z,5.15
2019-04-30T14:50:53.872Z,4.75
2019-04-30T14:53:21.214Z,5.15
2019-04-30T14:55:40.757Z,5.50
2019-04-30T14:58:09.695Z,5.67
2019-04-30T15:00:31.969Z,5.40
2019-04-30T15:02:38.043Z,5.87
2019-04-30T15:04:40.306Z,5.67
2019-04-30T15:06:42.401Z,6.10
2019-04-30T15:08:44.544Z,6.08
2019-04-30T15:10:46.559Z,5.05
2019-04-30T15:12:48.575Z,5.72
2019-04-30T15:14:50.934Z,5.97
2019-04-30T15:16:53.240Z,6.20
2019-04-30T15:18:55.476Z,5.58
2019-04-30T15:20:59.441Z,5.80
2019-04-30T15:23:21.852Z,6.03
2019-04-30T15:25:24.207Z,5.78
2019-04-30T15:27:26.440Z,6.25
2019-04-30T15:29:29.091Z,5.78
2019-04-30T15:31:31.206Z,5.60
2019-04-30T15:33:46.798Z,6.47
2019-04-30T15:35:50.329Z,6.20
2019-04-30T15:37:54.741Z,6.05
2019-04-30T15:39:59.040Z,6.20
2019-04-30T15:42:01.257Z,6.00
2019-04-30T15:44:03.653Z,6.87
2019-04-30T15:46:06.712Z,6.58
2019-04-30T15:48:08.762Z,7.30
2019-04-30T15:50:11.457Z,7.05
2019-04-30T15:52:13.833Z,6.55
2019-04-30T15:54:15.869Z,6.92
2019-04-30T15:56:19.282Z,7.25
2019-04-30T15:58:24.924Z,7.95
2019-04-30T16:00:29.277Z,8.15
2019-04-30T16:02:56.541Z,9.23
2019-04-30T16:05:10.493Z,8.95
2019-04-30T16:07:12.711Z,8.28
2019-04-30T16:09:20.505Z,7.72
2019-04-30T16:11:51.310Z,7.72
2019-04-30T16:14:18.787Z,7.47
2019-04-30T16:16:22.622Z,8.05
2019-04-30T16:18:30.187Z,7.95
2019-04-30T16:20:32.322Z,7.78
2019-04-30T16:22:34.345Z,7.20
2019-04-30T16:24:38.552Z,7.00
2019-04-30T16:26:49.010Z,7.28
2019-04-30T16:28:44.884Z,6.33
2019-04-30T16:30:47.428Z,8.03
2019-04-30T16:32:50.720Z,6.92
2019-04-30T16:34:52.978Z,6.17
2019-04-30T16:36:55.552Z,7.40
2019-04-30T16:38:58.645Z,6.80
2019-04-30T16:41:01.173Z,6.40
2019-04-30T16:45:06.016Z,7.25
2019-04-30T16:47:14.488Z,7.12
2019-04-30T16:49:13.520Z,7.45
2019-04-30T16:51:15.736Z,7.70
2019-04-30T16:53:17.816Z,6.80
2019-04-30T16:55:20.044Z,6.67
2019-04-30T16:57:22.211Z,5.97
2019-04-30T16:59:30.583Z,5.95
2019-04-30T17:01:34.555Z,6.35
2019-04-30T17:03:40.772Z,6.42
2019-04-30T17:05:51.879Z,6.55
2019-04-30T17:08:22.901Z,6.42
2019-04-30T17:10:47.222Z,5.87
2019-04-30T17:12:59.466Z,5.75
2019-04-30T17:15:19.973Z,5.78
2019-04-30T17:17:22.045Z,5.45
2019-04-30T17:19:24.191Z,5.95
2019-04-30T17:21:26.383Z,5.53
2019-04-30T17:23:29.311Z,4.95
2019-04-30T17:25:31.462Z,4.78
2019-04-30T17:27:33.687Z,4.70
2019-04-30T17:29:35.772Z,5.05
2019-04-30T17:31:38.099Z,5.17
2019-04-30T17:33:40.289Z,5.33
2019-04-30T17:35:42.320Z,5.10
2019-04-30T17:37:44.411Z,5.28
2019-04-30T17:39:46.863Z,5.15
2019-04-30T17:41:49.112Z,5.45
2019-04-30T17:43:51.184Z,5.25
2019-04-30T17:45:53.587Z,5.97
2019-04-30T17:49:58.917Z,4.95
2019-04-30T17:52:01.184Z,4.90
2019-04-30T17:54:12.574Z,5.30
2019-04-30T17:56:16.083Z,4.90
2019-04-30T17:58:20.616Z,4.55
2019-04-30T18:00:22.677Z,4.12
2019-04-30T18:02:27.194Z,5.92
2019-04-30T18:04:29.834Z,5.20
2019-04-30T18:06:31.896Z,5.10
2019-04-30T18:08:34.045Z,5.22
2019-04-30T18:10:36.554Z,4.58
2019-04-30T18:12:39.224Z,5.30
2019-04-30T18:14:41.478Z,5.80
2019-04-30T18:16:44.266Z,5.45
2019-04-30T18:18:54.811Z,5.50
2019-04-30T18:21:11.241Z,5.28
2019-04-30T18:23:29.658Z,5.42
2019-04-30T18:25:39.000Z,5.50
2019-04-30T18:27:49.479Z,5.90
2019-04-30T18:29:51.789Z,6.30
2019-04-30T18:31:53.876Z,5.58
2019-04-30T18:33:55.892Z,5.70
2019-04-30T18:35:59.700Z,5.55
2019-04-30T18:38:02.051Z,5.75
2019-04-30T18:40:05.409Z,5.85
2019-04-30T18:42:10.794Z,6.15
2019-04-30T18:44:12.118Z,5.35
2019-04-30T18:46:14.218Z,6.53
2019-04-30T18:48:16.539Z,5.72
2019-04-30T18:50:18.881Z,5.62
2019-04-30T18:52:21.304Z,6.08
2019-04-30T18:54:23.742Z,6.08
2019-04-30T18:58:39.619Z,5.67
2019-04-30T19:00:39.593Z,6.55
2019-04-30T19:02:41.931Z,6.45
2019-04-30T19:04:44.435Z,6.17
2019-04-30T19:09:06.707Z,6.30
2019-04-30T19:11:23.227Z,6.90
2019-04-30T19:13:38.518Z,6.78
2019-04-30T19:16:18.679Z,6.95
2019-04-30T19:18:21.876Z,7.50
2019-04-30T19:20:31.513Z,7.40
2019-04-30T19:22:33.696Z,7.60
2019-04-30T19:24:35.960Z,8.13
2019-04-30T19:26:38.859Z,8.15
2019-04-30T19:28:41.053Z,7.33
2019-04-30T19:30:54.947Z,8.25
2019-04-30T19:32:49.164Z,15.13
2019-04-30T19:34:51.465Z,12.15
2019-04-30T19:36:53.633Z,12.23
2019-04-30T19:38:56.009Z,12.37
2019-04-30T19:40:58.126Z,11.68
2019-04-30T19:43:00.166Z,11.80
2019-04-30T19:45:09.438Z,13.85
2019-04-30T19:47:06.818Z,13.15
2019-04-30T19:49:09.843Z,13.95
2019-04-30T19:51:12.593Z,13.65
2019-04-30T19:55:20.497Z,13.68
2019-04-30T19:57:22.333Z,15.20
2019-04-30T19:59:24.912Z,14.28
2019-04-30T20:01:28.693Z,14.68
2019-04-30T20:03:31.020Z,15.58
2019-04-30T20:05:33.015Z,16.67
2019-04-30T20:07:35.108Z,16.97
2019-04-30T20:09:37.415Z,17.52
2019-04-30T20:11:39.830Z,18.77
2019-04-30T20:13:43.519Z,18.25
2019-04-30T20:15:45.849Z,16.82
2019-04-30T20:17:49.416Z,19.07
2019-04-30T20:19:51.779Z,18.50
2019-04-30T20:21:56.640Z,19.00
2019-04-30T20:23:58.788Z,19.45
2019-04-30T20:26:00.828Z,18.77
2019-04-30T20:28:03.275Z,20.32
2019-04-30T20:32:08.678Z,17.67
2019-04-30T20:34:11.471Z,17.98
2019-04-30T20:36:13.605Z,16.35
2019-04-30T20:38:28.337Z,17.27
2019-04-30T20:40:43.070Z,17.55
2019-04-30T20:42:35.886Z,19.45
2019-04-30T20:44:38.970Z,18.23
2019-04-30T20:46:41.466Z,18.20
2019-04-30T20:48:43.600Z,18.45
2019-04-30T20:50:45.587Z,17.70
2019-04-30T20:52:49.063Z,19.20
2019-04-30T20:54:51.070Z,18.82
2019-04-30T20:56:55.842Z,18.15
2019-04-30T20:59:03.876Z,17.92
2019-04-30T21:01:06.383Z,16.32
2019-04-30T21:03:06.731Z,15.98
2019-04-30T21:05:08.983Z,15.18
2019-04-30T21:07:10.977Z,15.93
2019-04-30T21:09:14.397Z,16.93
2019-04-30T21:11:16.949Z,15.03
2019-04-30T21:13:19.511Z,14.80
2019-04-30T21:15:21.571Z,13.10
2019-04-30T21:17:23.861Z,12.82
2019-04-30T21:19:25.908Z,10.72
2019-04-30T21:21:28.773Z,11.30
2019-04-30T21:23:31.178Z,11.05
2019-04-30T21:25:33.172Z,11.35
2019-04-30T21:27:35.224Z,12.90
2019-04-30T21:29:39.146Z,13.32
2019-04-30T21:33:45.114Z,13.30
2019-04-30T21:35:50.963Z,14.35
2019-04-30T21:37:53.613Z,10.32
2019-04-30T21:39:55.825Z,9.85
2019-04-30T21:41:59.428Z,10.25
2019-04-30T21:44:01.840Z,10.65
2019-04-30T21:46:03.889Z,9.05
2019-04-30T21:48:06.190Z,9.10
2019-04-30T21:50:10.234Z,9.38
2019-04-30T21:52:12.477Z,10.38
2019-04-30T21:54:15.207Z,10.78
2019-04-30T21:56:17.320Z,10.30
2019-04-30T21:58:20.370Z,9.75
2019-04-30T22:00:51.906Z,9.63
2019-04-30T22:02:54.903Z,11.25
2019-04-30T22:04:57.089Z,10.43
2019-04-30T22:06:59.591Z,10.65
2019-04-30T22:09:04.447Z,13.22
2019-04-30T22:11:09.776Z,13.65
2019-04-30T22:13:12.270Z,13.18
2019-04-30T22:15:14.481Z,13.83
2019-04-30T22:17:16.434Z,15.90
2019-04-30T22:19:18.764Z,14.73
2019-04-30T22:23:22.505Z,14.83
2019-04-30T22:25:25.869Z,15.83
2019-04-30T22:27:27.906Z,17.27
2019-04-30T22:29:39.078Z,20.35
2019-04-30T22:31:34.211Z,16.50
2019-04-30T22:33:36.442Z,18.45
2019-04-30T22:35:51.442Z,18.10
2019-04-30T22:37:55.985Z,18.27
2019-04-30T22:40:02.237Z,18.87
2019-04-30T22:42:34.308Z,17.25
2019-04-30T22:44:36.695Z,18.05
2019-04-30T22:46:39.382Z,17.62
2019-04-30T22:48:41.555Z,16.80
2019-04-30T22:50:43.997Z,18.02
2019-04-30T22:54:47.968Z,17.00
2019-04-30T22:56:50.268Z,17.20
2019-04-30T22:58:53.487Z,16.00
2019-04-30T23:01:05.665Z,14.95
2019-04-30T23:03:10.759Z,15.90
2019-04-30T23:05:16.310Z,10.90
2019-04-30T23:07:19.572Z,13.28
2019-04-30T23:09:22.065Z,14.30
2019-04-30T23:13:26.930Z,15.18
2019-04-30T23:15:29.940Z,15.55
2019-04-30T23:17:32.608Z,15.60
2019-04-30T23:19:35.493Z,17.82
2019-04-30T23:21:39.181Z,17.20
2019-04-30T23:25:43.297Z,16.65
2019-04-30T23:27:46.037Z,17.48
2019-04-30T23:29:48.437Z,16.55
2019-04-30T23:31:52.035Z,17.98
2019-04-30T23:33:54.659Z,16.35
2019-04-30T23:35:56.677Z,17.65
2019-04-30T23:37:58.800Z,17.87
2019-04-30T23:40:29.746Z,19.70
2019-04-30T23:42:31.771Z,19.02
2019-04-30T23:44:33.870Z,18.02
2019-04-30T23:46:36.369Z,18.50
2019-04-30T23:50:40.133Z,20.45
2019-04-30T23:52:42.404Z,17.23
2019-04-30T23:54:45.393Z,21.10
2019-04-30T23:56:47.602Z,18.50
2019-04-30T23:58:50.633Z,20.17
